createdAt,value
2023-04-06T00:01:06.072Z,101314.88
2023-04-06T00:03:33.225Z,101324.91
2023-04-06T00:06:00.698Z,101326.31
2023-04-06T00:08:28.168Z,101324.94
2023-04-06T00:10:55.460Z,101326.47
2023-04-06T00:13:22.698Z,101315.09
2023-04-06T00:15:49.833Z,101317.81
2023-04-06T00:18:17.122Z,101318.97
2023-04-06T00:20:44.262Z,101316.88
2023-04-06T00:23:11.369Z,101312.44
2023-04-06T00:25:38.447Z,101306.50
2023-04-06T00:28:05.738Z,101306.63
2023-04-06T00:30:32.850Z,101306.31
2023-04-06T00:33:00.104Z,101308.16
2023-04-06T00:35:27.319Z,101309.84
2023-04-06T00:37:54.375Z,101310.16
2023-04-06T00:40:21.491Z,101304.94
2023-04-06T00:43:07.958Z,101300.56
2023-04-06T00:45:35.024Z,101297.41
2023-04-06T00:48:02.968Z,101294.94
2023-04-06T00:50:30.408Z,101292.31
2023-04-06T00:52:57.577Z,101299.59
2023-04-06T00:55:27.888Z,101296.53
2023-04-06T00:57:55.577Z,101293.34
2023-04-06T01:00:22.798Z,101296.75
2023-04-06T01:02:55.429Z,101300.22
2023-04-06T01:05:25.888Z,101303.22
2023-04-06T01:07:56.714Z,101293.06
2023-04-06T01:10:28.192Z,101289.56
2023-04-06T01:13:18.069Z,101289.34
2023-04-06T01:15:50.447Z,101288.94
2023-04-06T01:18:27.860Z,101292.75
2023-04-06T01:21:04.453Z,101293.59
2023-04-06T01:23:31.654Z,101295.63
2023-04-06T01:25:58.769Z,101290.63
2023-04-06T01:28:26.811Z,101293.94
2023-04-06T01:31:01.108Z,101288.38
2023-04-06T01:33:48.959Z,101292.69
2023-04-06T01:36:19.243Z,101289.97
2023-04-06T01:38:51.346Z,101285.38
2023-04-06T01:41:22.090Z,101287.59
2023-04-06T01:43:55.525Z,101284.81
2023-04-06T01:46:26.433Z,101288.34
2023-04-06T01:48:53.852Z,101286.72
2023-04-06T01:51:41.477Z,101283.47
2023-04-06T01:54:12.478Z,101275.34
2023-04-06T01:56:57.751Z,101284.31
2023-04-06T01:59:34.716Z,101288.06
2023-04-06T02:02:07.143Z,101285.88
2023-04-06T02:04:35.946Z,101281.28
2023-04-06T02:07:12.281Z,101276.16
2023-04-06T02:09:39.861Z,101278.94
2023-04-06T02:12:11.418Z,101282.19
2023-04-06T02:14:38.501Z,101291.38
2023-04-06T02:17:05.897Z,101287.66
2023-04-06T02:19:33.213Z,101287.94
2023-04-06T02:22:00.314Z,101280.88
2023-04-06T02:24:27.462Z,101287.94
2023-04-06T02:26:54.530Z,101287.00
2023-04-06T02:29:21.822Z,101284.81
2023-04-06T02:31:49.402Z,101283.97
2023-04-06T02:34:18.753Z,101288.56
2023-04-06T02:36:49.920Z,101288.81
2023-04-06T02:39:18.418Z,101289.03
2023-04-06T02:41:45.642Z,101289.38
2023-04-06T02:44:15.415Z,101299.25
2023-04-06T02:46:44.195Z,101297.22
2023-04-06T02:49:11.450Z,101297.78
2023-04-06T02:51:38.729Z,101295.91
2023-04-06T02:54:20.030Z,101293.75
2023-04-06T02:56:47.176Z,101300.44
2023-04-06T02:59:14.616Z,101295.00
2023-04-06T03:01:47.939Z,101290.19
2023-04-06T03:04:15.209Z,101293.72
2023-04-06T03:06:42.422Z,101291.66
2023-04-06T03:09:20.818Z,101287.94
2023-04-06T03:11:48.028Z,101294.81
2023-04-06T03:14:15.785Z,101291.84
2023-04-06T03:16:42.850Z,101288.06
2023-04-06T03:19:12.421Z,101290.47
2023-04-06T03:21:39.604Z,101287.00
2023-04-06T03:24:07.110Z,101285.94
2023-04-06T03:26:34.304Z,101281.84
2023-04-06T03:29:05.501Z,101279.13
2023-04-06T03:31:32.847Z,101275.91
2023-04-06T03:34:06.350Z,101282.19
2023-04-06T03:36:36.128Z,101280.53
2023-04-06T03:39:04.567Z,101279.47
2023-04-06T03:41:35.096Z,101279.16
2023-04-06T03:44:34.312Z,101282.16
2023-04-06T03:47:01.966Z,101273.00
2023-04-06T03:49:29.273Z,101280.84
2023-04-06T03:51:57.834Z,101282.44
2023-04-06T03:54:24.973Z,101284.84
2023-04-06T03:56:52.096Z,101280.78
2023-04-06T03:59:19.351Z,101276.25
2023-04-06T04:01:46.507Z,101282.97
2023-04-06T04:04:13.698Z,101286.78
2023-04-06T04:06:40.825Z,101287.59
2023-04-06T04:09:09.251Z,101289.25
2023-04-06T04:11:36.607Z,101295.47
2023-04-06T04:14:04.425Z,101290.31
2023-04-06T04:16:31.734Z,101294.06
2023-04-06T04:19:01.916Z,101287.84
2023-04-06T04:21:31.298Z,101291.16
2023-04-06T04:23:59.625Z,101289.47
2023-04-06T04:26:26.782Z,101290.81
2023-04-06T04:28:54.763Z,101301.41
2023-04-06T04:31:23.657Z,101301.13
2023-04-06T04:33:55.441Z,101297.09
2023-04-06T04:36:28.781Z,101297.63
2023-04-06T04:38:58.234Z,101295.75
2023-04-06T04:41:26.116Z,101294.13
2023-04-06T04:43:53.671Z,101299.81
2023-04-06T04:46:23.608Z,101305.72
2023-04-06T04:48:51.412Z,101300.09
2023-04-06T04:51:18.625Z,101304.41
2023-04-06T04:54:03.206Z,101304.41
2023-04-06T04:56:32.606Z,101302.50
2023-04-06T04:59:15.742Z,101303.59
2023-04-06T05:01:55.381Z,101300.06
2023-04-06T05:04:28.538Z,101294.09
2023-04-06T05:07:11.315Z,101307.63
2023-04-06T05:09:41.000Z,101301.16
2023-04-06T05:12:08.531Z,101298.19
2023-04-06T05:14:42.787Z,101305.19
2023-04-06T05:17:14.766Z,101304.69
2023-04-06T05:19:41.914Z,101307.91
2023-04-06T05:22:10.416Z,101311.97
2023-04-06T05:24:41.168Z,101308.69
2023-04-06T05:27:09.084Z,101318.97
2023-04-06T05:29:36.638Z,101314.09
2023-04-06T05:32:04.420Z,101314.09
2023-04-06T05:34:32.004Z,101317.06
2023-04-06T05:37:02.948Z,101318.66
2023-04-06T05:39:30.302Z,101322.94
2023-04-06T05:41:57.560Z,101314.25
2023-04-06T05:44:34.735Z,101320.44
2023-04-06T05:47:12.331Z,101317.19
2023-04-06T05:49:42.831Z,101325.75
2023-04-06T05:52:14.804Z,101326.22
2023-04-06T05:54:45.749Z,101322.34
2023-04-06T05:57:12.850Z,101324.41
2023-04-06T05:59:40.481Z,101329.53
2023-04-06T06:02:07.778Z,101327.06
2023-04-06T06:04:39.750Z,101328.16
2023-04-06T06:07:07.490Z,101317.94
2023-04-06T06:09:43.660Z,101331.03
2023-04-06T06:12:37.250Z,101328.22
2023-04-06T06:15:04.954Z,101327.31
2023-04-06T06:17:38.925Z,101330.03
2023-04-06T06:20:07.499Z,101330.19
2023-04-06T06:22:34.674Z,101331.56
2023-04-06T06:25:03.316Z,101329.66
2023-04-06T06:27:30.577Z,101324.28
2023-04-06T06:29:57.709Z,101325.81
2023-04-06T06:32:25.833Z,101326.22
2023-04-06T06:34:54.076Z,101323.50
2023-04-06T06:37:21.204Z,101321.44
2023-04-06T06:39:49.471Z,101319.44
2023-04-06T06:42:17.194Z,101317.63
2023-04-06T06:44:51.171Z,101321.31
2023-04-06T06:47:18.343Z,101304.38
2023-04-06T06:49:45.419Z,101307.16
2023-04-06T06:52:12.577Z,101302.72
2023-04-06T06:54:39.789Z,101306.16
2023-04-06T06:57:06.974Z,101306.63
2023-04-06T06:59:35.359Z,101305.81
2023-04-06T07:02:02.679Z,101310.16
2023-04-06T07:04:29.908Z,101301.75
2023-04-06T07:06:57.140Z,101309.88
2023-04-06T07:09:24.346Z,101314.16
2023-04-06T07:11:51.433Z,101311.63
2023-04-06T07:14:18.693Z,101318.81
2023-04-06T07:16:47.919Z,101309.66
2023-04-06T07:19:15.876Z,101311.75
2023-04-06T07:21:43.483Z,101305.38
2023-04-06T07:24:11.468Z,101312.91
2023-04-06T07:26:38.715Z,101305.56
2023-04-06T07:29:06.004Z,101308.09
2023-04-06T07:31:33.251Z,101299.44
2023-04-06T07:34:00.528Z,101303.31
2023-04-06T07:36:27.694Z,101300.66
2023-04-06T07:38:55.336Z,101304.06
2023-04-06T07:41:24.518Z,101298.03
2023-04-06T07:43:51.664Z,101309.06
2023-04-06T07:46:19.102Z,101304.91
2023-04-06T07:48:46.677Z,101315.00
2023-04-06T07:51:15.914Z,101307.66
2023-04-06T07:53:47.107Z,101311.00
2023-04-06T07:56:14.646Z,101311.63
2023-04-06T07:58:41.904Z,101316.91
2023-04-06T08:01:09.066Z,101318.00
2023-04-06T08:03:36.684Z,101318.34
2023-04-06T08:06:04.095Z,101311.03
2023-04-06T08:08:31.817Z,101314.44
2023-04-06T08:11:00.770Z,101314.38
2023-04-06T08:13:29.381Z,101314.38
2023-04-06T08:15:56.715Z,101313.56
2023-04-06T08:18:23.778Z,101306.41
2023-04-06T08:20:50.975Z,101307.41
2023-04-06T08:23:18.183Z,101306.13
2023-04-06T08:25:45.437Z,101305.03
2023-04-06T08:28:12.662Z,101306.66
2023-04-06T08:30:43.937Z,101303.00
2023-04-06T08:33:11.822Z,101303.47
2023-04-06T08:35:39.016Z,101305.03
2023-04-06T08:38:07.138Z,101300.59
2023-04-06T08:40:40.951Z,101295.16
2023-04-06T08:43:10.839Z,101293.72
2023-04-06T08:45:38.044Z,101290.66
2023-04-06T08:48:07.660Z,101288.38
2023-04-06T08:50:35.166Z,101282.66
2023-04-06T08:53:02.527Z,101286.50
2023-04-06T08:55:30.537Z,101287.22
2023-04-06T08:57:57.937Z,101285.44
2023-04-06T09:00:26.628Z,101277.88
2023-04-06T09:02:57.200Z,101283.31
2023-04-06T09:05:25.595Z,101273.41
2023-04-06T09:07:52.967Z,101274.53
2023-04-06T09:10:21.588Z,101270.69
2023-04-06T09:12:48.672Z,101262.13
2023-04-06T09:15:22.098Z,101270.31
2023-04-06T09:17:52.828Z,101266.53
2023-04-06T09:20:24.169Z,101271.00
2023-04-06T09:22:51.253Z,101263.78
2023-04-06T09:25:22.522Z,101267.34
2023-04-06T09:27:58.877Z,101263.66
2023-04-06T09:30:26.111Z,101270.81
2023-04-06T09:32:54.477Z,101268.47
2023-04-06T09:35:22.470Z,101268.03
2023-04-06T09:37:50.645Z,101259.53
2023-04-06T09:40:20.582Z,101253.06
2023-04-06T09:42:48.235Z,101245.84
2023-04-06T09:45:16.380Z,101252.28
2023-04-06T09:47:46.141Z,101251.72
2023-04-06T09:50:14.433Z,101248.69
2023-04-06T09:52:43.457Z,101236.31
2023-04-06T09:55:10.784Z,101240.91
2023-04-06T09:57:38.051Z,101229.56
2023-04-06T10:00:12.507Z,101231.22
2023-04-06T10:02:47.008Z,101236.00
2023-04-06T10:05:20.148Z,101226.47
2023-04-06T10:07:59.628Z,101212.63
2023-04-06T10:10:28.937Z,101216.97
2023-04-06T10:12:56.877Z,101201.59
2023-04-06T10:15:25.231Z,101219.69
2023-04-06T10:17:52.486Z,101197.78
2023-04-06T10:20:39.823Z,101196.31
2023-04-06T10:23:21.756Z,101190.44
2023-04-06T10:25:58.879Z,101194.22
2023-04-06T10:28:26.821Z,101199.66
2023-04-06T10:31:00.751Z,101186.72
2023-04-06T10:33:28.540Z,101178.53
2023-04-06T10:35:58.387Z,101184.38
2023-04-06T10:38:54.645Z,101182.25
2023-04-06T10:41:21.801Z,101186.22
2023-04-06T10:43:55.936Z,101174.50
2023-04-06T10:46:30.646Z,101178.63
2023-04-06T10:48:58.080Z,101172.31
2023-04-06T10:51:27.998Z,101175.97
2023-04-06T10:53:55.741Z,101168.44
2023-04-06T10:56:23.895Z,101157.69
2023-04-06T10:58:52.560Z,101165.34
2023-04-06T11:01:21.229Z,101158.59
2023-04-06T11:03:49.964Z,101158.53
2023-04-06T11:06:27.914Z,101148.13
2023-04-06T11:08:55.320Z,101147.31
2023-04-06T11:11:23.763Z,101152.38
2023-04-06T11:13:51.876Z,101150.34
2023-04-06T11:16:19.036Z,101143.50
2023-04-06T11:18:50.244Z,101142.72
2023-04-06T11:21:17.621Z,101129.31
2023-04-06T11:23:44.762Z,101118.94
2023-04-06T11:26:13.187Z,101132.91
2023-04-06T11:28:44.167Z,101125.41
2023-04-06T11:31:12.158Z,101127.00
2023-04-06T11:33:39.817Z,101115.69
2023-04-06T11:36:07.806Z,101105.94
2023-04-06T11:38:35.023Z,101125.13
2023-04-06T11:41:02.416Z,101119.09
2023-04-06T11:43:32.715Z,101113.50
2023-04-06T11:46:05.702Z,101106.91
2023-04-06T11:48:32.919Z,101112.69
2023-04-06T11:51:04.707Z,101102.06
2023-04-06T11:53:31.879Z,101101.91
2023-04-06T11:56:00.635Z,101100.16
2023-04-06T11:58:28.219Z,101100.53
2023-04-06T12:01:03.720Z,101095.69
2023-04-06T12:03:30.878Z,101087.84
2023-04-06T12:05:59.754Z,101088.78
2023-04-06T12:08:26.998Z,101098.53
2023-04-06T12:10:54.098Z,101082.25
2023-04-06T12:13:21.381Z,101084.63
2023-04-06T12:15:48.549Z,101078.66
2023-04-06T12:18:15.613Z,101062.41
2023-04-06T12:20:42.790Z,101062.00
2023-04-06T12:23:09.897Z,101062.56
2023-04-06T12:25:37.060Z,101062.59
2023-04-06T12:28:04.125Z,101073.94
2023-04-06T12:30:31.394Z,101048.25
2023-04-06T12:32:58.716Z,101056.72
2023-04-06T12:35:26.091Z,101051.69
2023-04-06T12:37:53.223Z,101053.19
2023-04-06T12:40:20.745Z,101045.72
2023-04-06T12:42:47.960Z,101045.16
2023-04-06T12:45:15.192Z,101044.72
2023-04-06T12:47:42.465Z,101041.78
2023-04-06T12:50:09.899Z,101037.84
2023-04-06T12:52:37.526Z,101038.84
2023-04-06T12:55:06.048Z,101032.34
2023-04-06T12:57:33.220Z,101031.53
2023-04-06T13:00:01.226Z,101031.28
2023-04-06T13:02:28.650Z,101025.84
2023-04-06T13:04:55.797Z,101020.44
2023-04-06T13:07:23.476Z,101016.47
2023-04-06T13:09:50.674Z,101017.50
2023-04-06T13:12:17.861Z,101012.22
2023-04-06T13:14:45.072Z,101016.91
2023-04-06T13:17:12.150Z,101014.63
2023-04-06T13:19:39.323Z,101011.13
2023-04-06T13:22:06.390Z,101011.22
2023-04-06T13:24:33.636Z,101009.06
2023-04-06T13:27:01.676Z,101000.06
2023-04-06T13:29:28.988Z,100995.78
2023-04-06T13:31:56.346Z,101005.44
2023-04-06T13:34:23.543Z,100992.72
2023-04-06T13:36:50.777Z,100990.00
2023-04-06T13:39:17.925Z,100981.72
2023-04-06T13:41:45.701Z,100990.06
2023-04-06T13:44:12.903Z,100978.88
2023-04-06T13:46:39.990Z,100979.69
2023-04-06T13:49:07.204Z,100978.50
2023-04-06T13:51:34.398Z,100969.78
2023-04-06T13:54:01.566Z,100976.59
2023-04-06T13:56:28.608Z,100962.53
2023-04-06T13:58:57.818Z,100964.16
2023-04-06T14:01:26.062Z,100965.78
2023-04-06T14:03:53.330Z,100968.03
2023-04-06T14:06:30.334Z,100967.72
2023-04-06T14:08:58.879Z,100965.03
2023-04-06T14:11:26.005Z,100963.81
2023-04-06T14:13:53.298Z,100962.47
2023-04-06T14:16:22.475Z,100964.38
2023-04-06T14:18:49.568Z,100959.09
2023-04-06T14:21:17.146Z,100956.25
2023-04-06T14:23:44.510Z,100961.34
2023-04-06T14:26:12.515Z,100960.63
2023-04-06T14:28:39.559Z,100959.72
2023-04-06T14:31:14.282Z,100954.00
2023-04-06T14:33:41.826Z,100957.16
2023-04-06T14:36:09.706Z,100954.53
2023-04-06T14:38:36.811Z,100958.22
2023-04-06T14:41:03.913Z,100955.03
2023-04-06T14:43:32.085Z,100955.72
2023-04-06T14:46:02.012Z,100946.38
2023-04-06T14:48:29.314Z,100954.59
2023-04-06T14:50:56.734Z,100949.53
2023-04-06T14:53:24.758Z,100951.63
2023-04-06T14:55:54.511Z,100945.41
2023-04-06T14:58:22.198Z,100946.50
2023-04-06T15:00:50.088Z,100953.75
2023-04-06T15:03:17.524Z,100944.91
2023-04-06T15:05:44.896Z,100936.00
2023-04-06T15:08:12.715Z,100942.94
2023-04-06T15:10:40.078Z,100945.34
2023-04-06T15:13:07.280Z,100945.00
2023-04-06T15:15:34.363Z,100948.56
2023-04-06T15:18:03.534Z,100936.28
2023-04-06T15:20:30.716Z,100944.81
2023-04-06T15:22:59.988Z,100926.53
2023-04-06T15:25:27.105Z,100929.31
2023-04-06T15:27:58.159Z,100935.44
2023-04-06T15:30:26.729Z,100942.28
2023-04-06T15:32:56.059Z,100930.78
2023-04-06T15:35:23.236Z,100931.44
2023-04-06T15:37:50.390Z,100926.03
2023-04-06T15:40:17.563Z,100932.44
2023-04-06T15:42:44.939Z,100926.56
2023-04-06T15:45:12.091Z,100925.34
2023-04-06T15:47:39.673Z,100919.38
2023-04-06T15:50:07.380Z,100924.09
2023-04-06T15:52:34.864Z,100910.81
2023-04-06T15:55:03.572Z,100918.88
2023-04-06T15:57:31.084Z,100917.63
2023-04-06T15:59:58.693Z,100917.91
2023-04-06T16:02:26.188Z,100920.72
2023-04-06T16:05:02.741Z,100920.81
2023-04-06T16:07:30.355Z,100912.34
2023-04-06T16:09:57.584Z,100920.84
2023-04-06T16:12:25.181Z,100921.94
2023-04-06T16:14:52.918Z,100926.09
2023-04-06T16:17:20.051Z,100916.97
2023-04-06T16:19:47.123Z,100924.13
2023-04-06T16:22:14.253Z,100919.31
2023-04-06T16:24:42.212Z,100916.88
2023-04-06T16:27:09.302Z,100917.75
2023-04-06T16:29:37.236Z,100924.94
2023-04-06T16:32:06.829Z,100920.84
2023-04-06T16:34:34.071Z,100920.03
2023-04-06T16:37:01.838Z,100924.81
2023-04-06T16:39:29.123Z,100915.53
2023-04-06T16:41:56.801Z,100920.19
2023-04-06T16:44:24.077Z,100922.63
2023-04-06T16:46:51.227Z,100921.78
2023-04-06T16:49:20.206Z,100918.63
2023-04-06T16:51:49.586Z,100917.22
2023-04-06T16:54:17.118Z,100924.13
2023-04-06T16:56:44.312Z,100928.03
2023-04-06T16:59:11.570Z,100921.63
2023-04-06T17:01:38.827Z,100930.78
2023-04-06T17:04:06.101Z,100928.59
2023-04-06T17:06:33.218Z,100931.25
2023-04-06T17:09:00.521Z,100922.19
2023-04-06T17:11:32.874Z,100926.25
2023-04-06T17:14:10.657Z,100927.28
2023-04-06T17:16:37.919Z,100925.31
2023-04-06T17:19:05.067Z,100926.22
2023-04-06T17:21:32.110Z,100922.56
2023-04-06T17:23:59.171Z,100919.72
2023-04-06T17:26:26.559Z,100923.16
2023-04-06T17:28:53.665Z,100933.28
2023-04-06T17:31:20.965Z,100927.91
2023-04-06T17:33:48.411Z,100918.59
2023-04-06T17:36:16.144Z,100927.72
2023-04-06T17:38:44.311Z,100930.78
2023-04-06T17:41:12.468Z,100930.44
2023-04-06T17:43:39.668Z,100935.78
2023-04-06T17:46:06.935Z,100936.34
2023-04-06T17:48:34.202Z,100933.41
2023-04-06T17:51:01.361Z,100932.59
2023-04-06T17:53:32.290Z,100935.78
2023-04-06T17:56:06.169Z,100934.28
2023-04-06T17:58:33.308Z,100947.25
2023-04-06T18:01:05.124Z,100943.94
2023-04-06T18:03:32.245Z,100948.91
2023-04-06T18:06:08.951Z,100945.66
2023-04-06T18:08:35.992Z,100951.78
2023-04-06T18:11:04.254Z,100948.22
2023-04-06T18:13:31.319Z,100956.00
2023-04-06T18:16:01.971Z,100962.34
2023-04-06T18:18:29.171Z,100964.63
2023-04-06T18:20:56.435Z,100966.97
2023-04-06T18:23:23.583Z,100968.16
2023-04-06T18:25:51.073Z,100961.97
2023-04-06T18:28:18.242Z,100961.91
2023-04-06T18:30:45.496Z,100969.13
2023-04-06T18:33:12.588Z,100966.13
2023-04-06T18:35:42.036Z,100972.63
2023-04-06T18:38:09.149Z,100972.88
2023-04-06T18:40:37.536Z,100975.63
2023-04-06T18:43:06.255Z,100971.47
2023-04-06T18:45:34.727Z,100969.41
2023-04-06T18:48:01.858Z,100980.84
2023-04-06T18:50:28.966Z,100978.84
2023-04-06T18:52:56.223Z,100976.03
2023-04-06T18:55:23.401Z,100973.47
2023-04-06T18:57:50.608Z,100976.25
2023-04-06T19:00:18.027Z,100979.88
2023-04-06T19:02:45.822Z,100978.22
2023-04-06T19:05:13.345Z,100984.66
2023-04-06T19:07:42.129Z,100988.25
2023-04-06T19:10:09.869Z,100993.41
2023-04-06T19:12:38.788Z,100990.00
2023-04-06T19:15:07.763Z,100997.72
2023-04-06T19:17:35.407Z,100997.88
2023-04-06T19:20:02.803Z,100996.13
2023-04-06T19:22:29.980Z,101000.78
2023-04-06T19:24:57.154Z,101005.09
2023-04-06T19:27:24.254Z,101005.91
2023-04-06T19:29:52.137Z,101013.97
2023-04-06T19:32:19.237Z,101013.81
2023-04-06T19:34:46.435Z,101017.66
2023-04-06T19:37:13.513Z,101014.47
2023-04-06T19:39:44.031Z,101008.03
2023-04-06T19:42:12.239Z,101018.47
2023-04-06T19:44:39.340Z,101016.75
2023-04-06T19:47:06.584Z,101026.72
2023-04-06T19:49:33.837Z,101027.84
2023-04-06T19:52:00.938Z,101025.41
2023-04-06T19:54:28.080Z,101028.31
2023-04-06T19:56:55.813Z,101027.50
2023-04-06T19:59:22.958Z,101029.41
2023-04-06T20:01:50.181Z,101027.66
2023-04-06T20:04:17.461Z,101030.03
2023-04-06T20:06:44.674Z,101034.22
2023-04-06T20:09:12.135Z,101035.50
2023-04-06T20:11:39.227Z,101034.38
2023-04-06T20:14:06.352Z,101035.16
2023-04-06T20:16:33.560Z,101039.78
2023-04-06T20:19:00.896Z,101037.03
2023-04-06T20:21:27.962Z,101042.16
2023-04-06T20:23:55.017Z,101037.66
2023-04-06T20:26:22.113Z,101037.16
2023-04-06T20:28:49.232Z,101040.53
2023-04-06T20:31:16.407Z,101042.78
2023-04-06T20:33:43.511Z,101045.66
2023-04-06T20:36:11.421Z,101049.97
2023-04-06T20:38:38.609Z,101049.06
2023-04-06T20:41:07.644Z,101045.84
2023-04-06T20:43:35.530Z,101055.00
2023-04-06T20:46:03.123Z,101055.94
2023-04-06T20:48:33.445Z,101051.09
2023-04-06T20:51:03.211Z,101055.53
2023-04-06T20:53:31.715Z,101062.38
2023-04-06T20:56:01.072Z,101059.28
2023-04-06T20:58:28.125Z,101062.44
2023-04-06T21:00:55.429Z,101067.72
2023-04-06T21:03:23.364Z,101070.69
2023-04-06T21:05:57.308Z,101073.63
2023-04-06T21:08:24.465Z,101065.66
2023-04-06T21:10:51.560Z,101073.16
2023-04-06T21:13:18.613Z,101068.63
2023-04-06T21:15:45.719Z,101063.25
2023-04-06T21:18:12.956Z,101072.44
2023-04-06T21:20:40.166Z,101072.69
2023-04-06T21:23:07.315Z,101073.00
2023-04-06T21:25:36.596Z,101065.72
2023-04-06T21:28:03.876Z,101072.03
2023-04-06T21:30:36.865Z,101064.66
2023-04-06T21:33:04.473Z,101062.25
2023-04-06T21:35:31.724Z,101063.53
2023-04-06T21:37:58.767Z,101066.63
2023-04-06T21:40:25.906Z,101070.16
2023-04-06T21:42:52.945Z,101071.09
2023-04-06T21:45:20.616Z,101075.56
2023-04-06T21:47:47.739Z,101079.84
2023-04-06T21:50:14.990Z,101075.75
2023-04-06T21:52:42.070Z,101075.63
2023-04-06T21:55:09.392Z,101069.38
2023-04-06T21:57:36.579Z,101071.81
2023-04-06T22:00:10.326Z,101070.06
2023-04-06T22:02:45.643Z,101064.78
2023-04-06T22:05:13.238Z,101067.16
2023-04-06T22:07:40.563Z,101061.78
2023-04-06T22:10:08.281Z,101063.59
2023-04-06T22:12:35.395Z,101066.00
2023-04-06T22:15:02.562Z,101064.78
2023-04-06T22:17:30.205Z,101061.66
2023-04-06T22:19:57.358Z,101065.56
2023-04-06T22:22:24.644Z,101057.69
2023-04-06T22:24:51.780Z,101053.28
2023-04-06T22:27:18.839Z,101060.16
2023-04-06T22:29:45.940Z,101062.50
2023-04-06T22:32:13.055Z,101058.06
2023-04-06T22:34:40.183Z,101060.84
2023-04-06T22:37:07.197Z,101071.59
2023-04-06T22:39:34.349Z,101066.16
2023-04-06T22:42:01.726Z,101067.59
2023-04-06T22:44:28.772Z,101058.06
2023-04-06T22:46:55.959Z,101055.41
2023-04-06T22:49:23.019Z,101063.44
2023-04-06T22:51:50.267Z,101049.22
2023-04-06T22:54:17.608Z,101048.41
2023-04-06T22:56:44.943Z,101041.94
2023-04-06T22:59:12.065Z,101042.00
2023-04-06T23:01:39.151Z,101045.75
2023-04-06T23:04:06.501Z,101047.28
2023-04-06T23:06:33.792Z,101052.72
2023-04-06T23:09:00.959Z,101048.03
2023-04-06T23:11:28.083Z,101054.97
2023-04-06T23:13:55.147Z,101045.09
2023-04-06T23:16:22.361Z,101043.34
2023-04-06T23:18:49.472Z,101051.56
2023-04-06T23:21:16.499Z,101041.81
2023-04-06T23:23:43.524Z,101038.13
2023-04-06T23:26:10.732Z,101037.31
2023-04-06T23:28:37.757Z,101047.22
2023-04-06T23:31:04.775Z,101035.41
2023-04-06T23:33:31.815Z,101036.59
2023-04-06T23:35:58.870Z,101039.00
2023-04-06T23:38:25.984Z,101043.31
2023-04-06T23:40:53.038Z,101043.44
2023-04-06T23:43:20.109Z,101038.31
2023-04-06T23:45:47.209Z,101040.03
2023-04-06T23:48:14.249Z,101041.38
2023-04-06T23:50:41.427Z,101044.69
2023-04-06T23:53:08.538Z,101038.75
2023-04-06T23:55:35.616Z,101037.13
2023-04-06T23:58:04.087Z,101034.13
